Saint-Chrysostome, Canada
Current Conditions -  °F | °C
As of 5:00 PM on Thursday 20 Nov 2014 (Local Time) from CYUL Reporting Station
Scattered Clouds Scattered Clouds  
Wind Chill: 16°   Ceiling: Unl
Heat Index: 28°   Visibility: 15mi
Dew Point: 12°   Wind: 18mph
Humidity: 51%   Direction: 240°WSW
Pressure: 29.73"   Gusts: 26mph
Location:  45.1°N, 73.75°W
Report Text: CYUL 202200Z 24016G23KT 15SM FEW060 SCT120 M02/M11 A2973 RMK CU1AC3 CU TR SLP068
Loading
Personal Weather Stations






























Interactive Weather Map New forecast layout! Learn more

10-Day Weather Forecast

Advertisements
Track Severe Weather on mobile